sensor_id;sensor_type;location;lat;lon;timestamp;P1;durP1;ratioP1;P2;durP2;ratioP2
2622;SDS011;1321;48.690;9.022;2022-07-12T00:00:56;2.17;;;1.97;;
2622;SDS011;1321;48.690;9.022;2022-07-12T00:03:24;2.97;;;2.20;;
2622;SDS011;1321;48.690;9.022;2022-07-12T00:05:52;2.70;;;2.50;;
2622;SDS011;1321;48.690;9.022;2022-07-12T00:08:21;2.33;;;2.10;;
2622;SDS011;1321;48.690;9.022;2022-07-12T00:10:49;2.30;;;2.10;;
2622;SDS011;1321;48.690;9.022;2022-07-12T00:13:18;1.83;;;1.73;;
2622;SDS011;1321;48.690;9.022;2022-07-12T00:15:48;2.17;;;2.07;;
2622;SDS011;1321;48.690;9.022;2022-07-12T00:18:16;2.30;;;2.10;;
2622;SDS011;1321;48.690;9.022;2022-07-12T00:20:45;2.23;;;2.03;;
2622;SDS011;1321;48.690;9.022;2022-07-12T00:23:13;4.00;;;2.07;;
2622;SDS011;1321;48.690;9.022;2022-07-12T00:25:41;2.23;;;2.13;;
2622;SDS011;1321;48.690;9.022;2022-07-12T00:28:10;3.93;;;2.10;;
2622;SDS011;1321;48.690;9.022;2022-07-12T00:30:38;3.77;;;2.30;;
2622;SDS011;1321;48.690;9.022;2022-07-12T00:33:08;2.43;;;2.23;;
2622;SDS011;1321;48.690;9.022;2022-07-12T00:35:36;2.20;;;2.00;;
2622;SDS011;1321;48.690;9.022;2022-07-12T00:38:04;2.40;;;2.20;;
2622;SDS011;1321;48.690;9.022;2022-07-12T00:40:32;4.00;;;2.13;;
2622;SDS011;1321;48.690;9.022;2022-07-12T00:43:01;2.57;;;2.37;;
2622;SDS011;1321;48.690;9.022;2022-07-12T00:45:29;3.10;;;2.80;;
2622;SDS011;1321;48.690;9.022;2022-07-12T00:47:57;2.63;;;1.60;;
2622;SDS011;1321;48.690;9.022;2022-07-12T00:50:27;2.73;;;2.47;;
2622;SDS011;1321;48.690;9.022;2022-07-12T00:52:56;2.27;;;2.07;;
2622;SDS011;1321;48.690;9.022;2022-07-12T01:03:00;3.23;;;2.50;;
2622;SDS011;1321;48.690;9.022;2022-07-12T01:05:31;2.57;;;2.37;;
2622;SDS011;1321;48.690;9.022;2022-07-12T01:07:59;2.60;;;2.20;;
2622;SDS011;1321;48.690;9.022;2022-07-12T01:10:28;2.47;;;2.27;;
2622;SDS011;1321;48.690;9.022;2022-07-12T01:12:58;4.40;;;2.20;;
2622;SDS011;1321;48.690;9.022;2022-07-12T01:15:28;2.17;;;2.03;;
2622;SDS011;1321;48.690;9.022;2022-07-12T01:17:56;3.03;;;2.50;;
2622;SDS011;1321;48.690;9.022;2022-07-12T01:20:26;3.20;;;2.53;;
2622;SDS011;1321;48.690;9.022;2022-07-12T01:22:56;3.63;;;2.47;;
2622;SDS011;1321;48.690;9.022;2022-07-12T01:25:25;2.33;;;2.23;;
2622;SDS011;1321;48.690;9.022;2022-07-12T01:27:53;2.53;;;2.37;;
2622;SDS011;1321;48.690;9.022;2022-07-12T01:30:22;2.30;;;2.00;;
2622;SDS011;1321;48.690;9.022;2022-07-12T01:32:50;2.30;;;2.10;;
2622;SDS011;1321;48.690;9.022;2022-07-12T01:35:19;3.60;;;2.17;;
2622;SDS011;1321;48.690;9.022;2022-07-12T01:37:48;2.20;;;2.00;;
2622;SDS011;1321;48.690;9.022;2022-07-12T01:40:18;3.37;;;2.03;;
2622;SDS011;1321;48.690;9.022;2022-07-12T01:42:47;2.40;;;2.20;;
2622;SDS011;1321;48.690;9.022;2022-07-12T01:45:18;2.73;;;2.50;;
2622;SDS011;1321;48.690;9.022;2022-07-12T01:47:46;2.33;;;2.00;;
2622;SDS011;1321;48.690;9.022;2022-07-12T01:50:15;2.53;;;2.23;;
2622;SDS011;1321;48.690;9.022;2022-07-12T01:52:43;2.33;;;2.13;;
2622;SDS011;1321;48.690;9.022;2022-07-12T01:55:12;2.30;;;2.10;;
2622;SDS011;1321;48.690;9.022;2022-07-12T01:57:42;3.20;;;2.20;;
2622;SDS011;1321;48.690;9.022;2022-07-12T02:00:11;2.43;;;2.00;;
2622;SDS011;1321;48.690;9.022;2022-07-12T02:02:41;2.83;;;2.63;;
2622;SDS011;1321;48.690;9.022;2022-07-12T02:05:10;2.83;;;2.30;;
2622;SDS011;1321;48.690;9.022;2022-07-12T02:07:39;2.40;;;2.20;;
2622;SDS011;1321;48.690;9.022;2022-07-12T02:10:08;3.27;;;2.60;;
2622;SDS011;1321;48.690;9.022;2022-07-12T02:12:36;2.33;;;1.80;;
2622;SDS011;1321;48.690;9.022;2022-07-12T02:15:07;2.30;;;2.10;;
2622;SDS011;1321;48.690;9.022;2022-07-12T02:17:36;2.87;;;2.03;;
2622;SDS011;1321;48.690;9.022;2022-07-12T02:20:05;3.27;;;2.23;;
2622;SDS011;1321;48.690;9.022;2022-07-12T02:22:36;3.10;;;2.77;;
2622;SDS011;1321;48.690;9.022;2022-07-12T02:25:05;3.03;;;2.10;;
2622;SDS011;1321;48.690;9.022;2022-07-12T02:27:33;2.77;;;2.57;;
2622;SDS011;1321;48.690;9.022;2022-07-12T02:30:01;2.47;;;2.27;;
2622;SDS011;1321;48.690;9.022;2022-07-12T02:32:31;3.10;;;2.00;;
2622;SDS011;1321;48.690;9.022;2022-07-12T02:34:59;2.40;;;2.20;;
2622;SDS011;1321;48.690;9.022;2022-07-12T02:37:27;2.33;;;2.23;;
2622;SDS011;1321;48.690;9.022;2022-07-12T02:39:56;2.93;;;2.73;;
2622;SDS011;1321;48.690;9.022;2022-07-12T02:42:38;2.23;;;2.03;;
2622;SDS011;1321;48.690;9.022;2022-07-12T02:45:06;2.13;;;2.03;;
2622;SDS011;1321;48.690;9.022;2022-07-12T02:47:37;2.23;;;2.13;;
2622;SDS011;1321;48.690;9.022;2022-07-12T02:50:06;2.70;;;2.50;;
2622;SDS011;1321;48.690;9.022;2022-07-12T02:52:35;2.00;;;1.90;;
2622;SDS011;1321;48.690;9.022;2022-07-12T02:55:03;2.60;;;2.40;;
2622;SDS011;1321;48.690;9.022;2022-07-12T02:57:32;2.07;;;1.97;;
2622;SDS011;1321;48.690;9.022;2022-07-12T03:00:00;2.73;;;2.03;;
2622;SDS011;1321;48.690;9.022;2022-07-12T03:02:28;2.53;;;2.33;;
2622;SDS011;1321;48.690;9.022;2022-07-12T03:04:58;2.00;;;1.90;;
2622;SDS011;1321;48.690;9.022;2022-07-12T03:07:26;2.20;;;2.10;;
2622;SDS011;1321;48.690;9.022;2022-07-12T03:09:54;2.17;;;2.03;;
2622;SDS011;1321;48.690;9.022;2022-07-12T03:12:23;2.40;;;2.30;;
2622;SDS011;1321;48.690;9.022;2022-07-12T03:14:52;2.57;;;2.37;;
2622;SDS011;1321;48.690;9.022;2022-07-12T03:17:21;2.00;;;1.90;;
2622;SDS011;1321;48.690;9.022;2022-07-12T03:19:49;2.50;;;2.30;;
2622;SDS011;1321;48.690;9.022;2022-07-12T03:22:19;5.97;;;2.10;;
2622;SDS011;1321;48.690;9.022;2022-07-12T03:24:47;1.80;;;1.70;;
2622;SDS011;1321;48.690;9.022;2022-07-12T03:27:15;2.10;;;1.90;;
2622;SDS011;1321;48.690;9.022;2022-07-12T03:29:43;3.20;;;2.27;;
2622;SDS011;1321;48.690;9.022;2022-07-12T03:32:12;3.77;;;2.23;;
2622;SDS011;1321;48.690;9.022;2022-07-12T03:34:40;4.43;;;2.17;;
2622;SDS011;1321;48.690;9.022;2022-07-12T03:37:08;2.07;;;1.97;;
2622;SDS011;1321;48.690;9.022;2022-07-12T03:39:37;2.10;;;1.90;;
2622;SDS011;1321;48.690;9.022;2022-07-12T03:42:05;2.70;;;2.50;;
2622;SDS011;1321;48.690;9.022;2022-07-12T03:44:34;5.87;;;2.10;;
2622;SDS011;1321;48.690;9.022;2022-07-12T03:47:02;2.37;;;2.27;;
2622;SDS011;1321;48.690;9.022;2022-07-12T03:49:30;2.10;;;2.00;;
2622;SDS011;1321;48.690;9.022;2022-07-12T03:51:58;2.10;;;2.00;;
2622;SDS011;1321;48.690;9.022;2022-07-12T03:54:29;2.23;;;2.13;;
2622;SDS011;1321;48.690;9.022;2022-07-12T03:56:58;2.20;;;2.00;;
2622;SDS011;1321;48.690;9.022;2022-07-12T03:59:41;2.27;;;2.07;;
2622;SDS011;1321;48.690;9.022;2022-07-12T04:02:11;1.83;;;1.73;;
2622;SDS011;1321;48.690;9.022;2022-07-12T04:04:40;2.07;;;1.87;;
2622;SDS011;1321;48.690;9.022;2022-07-12T04:07:08;3.00;;;1.77;;
2622;SDS011;1321;48.690;9.022;2022-07-12T04:09:37;2.13;;;1.90;;
2622;SDS011;1321;48.690;9.022;2022-07-12T04:12:07;3.73;;;2.20;;
2622;SDS011;1321;48.690;9.022;2022-07-12T04:14:36;2.43;;;2.20;;
2622;SDS011;1321;48.690;9.022;2022-07-12T04:17:04;2.90;;;2.40;;
2622;SDS011;1321;48.690;9.022;2022-07-12T04:19:33;2.30;;;2.00;;
2622;SDS011;1321;48.690;9.022;2022-07-12T04:22:01;2.60;;;2.03;;
2622;SDS011;1321;48.690;9.022;2022-07-12T04:24:29;2.57;;;2.37;;
2622;SDS011;1321;48.690;9.022;2022-07-12T04:26:59;3.23;;;2.43;;
2622;SDS011;1321;48.690;9.022;2022-07-12T04:29:28;2.30;;;2.20;;
2622;SDS011;1321;48.690;9.022;2022-07-12T04:31:56;2.30;;;2.00;;
2622;SDS011;1321;48.690;9.022;2022-07-12T04:34:25;2.10;;;1.93;;
2622;SDS011;1321;48.690;9.022;2022-07-12T04:36:53;3.40;;;2.70;;
2622;SDS011;1321;48.690;9.022;2022-07-12T04:39:22;3.33;;;2.77;;
2622;SDS011;1321;48.690;9.022;2022-07-12T04:41:50;2.70;;;2.50;;
2622;SDS011;1321;48.690;9.022;2022-07-12T04:44:18;2.60;;;2.30;;
2622;SDS011;1321;48.690;9.022;2022-07-12T04:46:47;2.83;;;2.63;;
2622;SDS011;1321;48.690;9.022;2022-07-12T04:49:16;4.23;;;1.50;;
2622;SDS011;1321;48.690;9.022;2022-07-12T04:51:44;2.67;;;2.47;;
2622;SDS011;1321;48.690;9.022;2022-07-12T04:54:12;2.87;;;2.20;;
2622;SDS011;1321;48.690;9.022;2022-07-12T04:56:41;3.00;;;2.70;;
2622;SDS011;1321;48.690;9.022;2022-07-12T04:59:09;2.73;;;2.10;;
2622;SDS011;1321;48.690;9.022;2022-07-12T05:01:37;3.17;;;2.50;;
2622;SDS011;1321;48.690;9.022;2022-07-12T05:04:07;2.50;;;2.30;;
2622;SDS011;1321;48.690;9.022;2022-07-12T05:06:36;2.70;;;2.40;;
2622;SDS011;1321;48.690;9.022;2022-07-12T05:09:04;3.77;;;2.73;;
2622;SDS011;1321;48.690;9.022;2022-07-12T05:11:32;3.00;;;2.80;;
2622;SDS011;1321;48.690;9.022;2022-07-12T05:14:00;3.40;;;3.20;;
2622;SDS011;1321;48.690;9.022;2022-07-12T05:16:28;2.93;;;2.73;;
2622;SDS011;1321;48.690;9.022;2022-07-12T05:18:57;3.07;;;2.87;;
2622;SDS011;1321;48.690;9.022;2022-07-12T05:21:26;2.93;;;2.73;;
2622;SDS011;1321;48.690;9.022;2022-07-12T05:23:55;2.87;;;2.40;;
2622;SDS011;1321;48.690;9.022;2022-07-12T05:26:23;5.03;;;3.20;;
2622;SDS011;1321;48.690;9.022;2022-07-12T05:28:51;3.10;;;2.80;;
2622;SDS011;1321;48.690;9.022;2022-07-12T05:31:20;3.60;;;2.87;;
2622;SDS011;1321;48.690;9.022;2022-07-12T05:33:50;4.13;;;3.60;;
2622;SDS011;1321;48.690;9.022;2022-07-12T05:36:18;3.70;;;2.80;;
2622;SDS011;1321;48.690;9.022;2022-07-12T05:38:48;4.47;;;2.40;;
2622;SDS011;1321;48.690;9.022;2022-07-12T05:41:16;2.30;;;1.80;;
2622;SDS011;1321;48.690;9.022;2022-07-12T05:43:44;2.47;;;2.07;;
2622;SDS011;1321;48.690;9.022;2022-07-12T05:46:12;2.47;;;2.27;;
2622;SDS011;1321;48.690;9.022;2022-07-12T05:48:41;4.07;;;2.93;;
2622;SDS011;1321;48.690;9.022;2022-07-12T05:51:09;2.90;;;2.70;;
2622;SDS011;1321;48.690;9.022;2022-07-12T05:53:56;2.10;;;2.00;;
2622;SDS011;1321;48.690;9.022;2022-07-12T05:56:24;2.27;;;2.13;;
2622;SDS011;1321;48.690;9.022;2022-07-12T05:58:52;1.60;;;1.50;;
2622;SDS011;1321;48.690;9.022;2022-07-12T06:01:21;2.50;;;1.40;;
2622;SDS011;1321;48.690;9.022;2022-07-12T06:03:49;1.70;;;1.60;;
2622;SDS011;1321;48.690;9.022;2022-07-12T06:06:17;1.70;;;1.60;;
2622;SDS011;1321;48.690;9.022;2022-07-12T06:08:45;1.93;;;1.40;;
2622;SDS011;1321;48.690;9.022;2022-07-12T06:11:15;1.60;;;1.30;;
2622;SDS011;1321;48.690;9.022;2022-07-12T06:13:43;2.10;;;1.43;;
2622;SDS011;1321;48.690;9.022;2022-07-12T06:16:11;1.60;;;1.50;;
2622;SDS011;1321;48.690;9.022;2022-07-12T06:18:39;2.27;;;1.00;;
2622;SDS011;1321;48.690;9.022;2022-07-12T06:21:07;1.10;;;1.00;;
2622;SDS011;1321;48.690;9.022;2022-07-12T06:23:35;1.13;;;0.93;;
2622;SDS011;1321;48.690;9.022;2022-07-12T06:26:04;1.53;;;1.00;;
2622;SDS011;1321;48.690;9.022;2022-07-12T06:28:34;0.80;;;0.80;;
2622;SDS011;1321;48.690;9.022;2022-07-12T06:31:03;1.20;;;1.10;;
2622;SDS011;1321;48.690;9.022;2022-07-12T06:33:31;1.00;;;1.00;;
2622;SDS011;1321;48.690;9.022;2022-07-12T06:36:00;1.00;;;1.00;;
2622;SDS011;1321;48.690;9.022;2022-07-12T06:38:29;3.30;;;1.10;;
2622;SDS011;1321;48.690;9.022;2022-07-12T06:41:06;0.80;;;0.80;;
2622;SDS011;1321;48.690;9.022;2022-07-12T06:43:36;1.30;;;1.10;;
2622;SDS011;1321;48.690;9.022;2022-07-12T06:46:04;1.10;;;0.90;;
2622;SDS011;1321;48.690;9.022;2022-07-12T06:48:33;2.23;;;0.90;;
2622;SDS011;1321;48.690;9.022;2022-07-12T06:51:01;0.90;;;0.90;;
2622;SDS011;1321;48.690;9.022;2022-07-12T06:53:29;1.03;;;0.80;;
2622;SDS011;1321;48.690;9.022;2022-07-12T06:55:57;1.00;;;0.90;;
2622;SDS011;1321;48.690;9.022;2022-07-12T06:58:25;1.00;;;0.90;;
2622;SDS011;1321;48.690;9.022;2022-07-12T07:00:55;1.00;;;0.90;;
2622;SDS011;1321;48.690;9.022;2022-07-12T07:03:24;0.97;;;0.97;;
2622;SDS011;1321;48.690;9.022;2022-07-12T07:05:52;0.90;;;0.90;;
2622;SDS011;1321;48.690;9.022;2022-07-12T07:08:20;0.93;;;0.90;;
2622;SDS011;1321;48.690;9.022;2022-07-12T07:10:48;0.80;;;0.80;;
2622;SDS011;1321;48.690;9.022;2022-07-12T07:13:16;0.97;;;0.80;;
2622;SDS011;1321;48.690;9.022;2022-07-12T07:15:45;1.13;;;0.90;;
2622;SDS011;1321;48.690;9.022;2022-07-12T07:18:14;0.90;;;0.90;;
2622;SDS011;1321;48.690;9.022;2022-07-12T07:20:43;1.83;;;1.23;;
2622;SDS011;1321;48.690;9.022;2022-07-12T07:23:11;1.30;;;0.90;;
2622;SDS011;1321;48.690;9.022;2022-07-12T07:25:43;1.23;;;1.00;;
2622;SDS011;1321;48.690;9.022;2022-07-12T07:28:11;1.00;;;0.90;;
2622;SDS011;1321;48.690;9.022;2022-07-12T07:30:39;1.17;;;0.80;;
2622;SDS011;1321;48.690;9.022;2022-07-12T07:33:20;0.80;;;0.80;;
2622;SDS011;1321;48.690;9.022;2022-07-12T07:35:49;0.80;;;0.80;;
2622;SDS011;1321;48.690;9.022;2022-07-12T07:38:18;0.80;;;0.80;;
2622;SDS011;1321;48.690;9.022;2022-07-12T07:40:47;0.70;;;0.70;;
2622;SDS011;1321;48.690;9.022;2022-07-12T07:43:15;0.80;;;0.80;;
2622;SDS011;1321;48.690;9.022;2022-07-12T07:45:43;0.90;;;0.90;;
2622;SDS011;1321;48.690;9.022;2022-07-12T07:48:13;0.80;;;0.80;;
2622;SDS011;1321;48.690;9.022;2022-07-12T07:50:52;0.70;;;0.70;;
2622;SDS011;1321;48.690;9.022;2022-07-12T07:53:21;1.23;;;0.80;;
2622;SDS011;1321;48.690;9.022;2022-07-12T07:55:51;0.70;;;0.70;;
2622;SDS011;1321;48.690;9.022;2022-07-12T07:58:19;0.93;;;0.70;;
2622;SDS011;1321;48.690;9.022;2022-07-12T08:00:49;0.80;;;0.70;;
2622;SDS011;1321;48.690;9.022;2022-07-12T08:03:18;0.70;;;0.70;;
2622;SDS011;1321;48.690;9.022;2022-07-12T08:05:46;0.80;;;0.60;;
2622;SDS011;1321;48.690;9.022;2022-07-12T08:08:19;0.63;;;0.63;;
2622;SDS011;1321;48.690;9.022;2022-07-12T08:10:48;0.70;;;0.70;;
2622;SDS011;1321;48.690;9.022;2022-07-12T08:13:16;0.83;;;0.83;;
2622;SDS011;1321;48.690;9.022;2022-07-12T08:15:44;0.60;;;0.60;;
2622;SDS011;1321;48.690;9.022;2022-07-12T08:18:13;0.80;;;0.80;;
2622;SDS011;1321;48.690;9.022;2022-07-12T08:20:41;0.77;;;0.77;;
2622;SDS011;1321;48.690;9.022;2022-07-12T08:23:13;0.87;;;0.87;;
2622;SDS011;1321;48.690;9.022;2022-07-12T08:25:42;1.33;;;0.70;;
2622;SDS011;1321;48.690;9.022;2022-07-12T08:28:11;0.73;;;0.73;;
2622;SDS011;1321;48.690;9.022;2022-07-12T08:30:39;1.00;;;0.90;;
2622;SDS011;1321;48.690;9.022;2022-07-12T08:33:12;0.80;;;0.80;;
2622;SDS011;1321;48.690;9.022;2022-07-12T08:35:41;0.80;;;0.80;;
2622;SDS011;1321;48.690;9.022;2022-07-12T08:38:10;0.80;;;0.80;;
2622;SDS011;1321;48.690;9.022;2022-07-12T08:40:40;0.80;;;0.73;;
2622;SDS011;1321;48.690;9.022;2022-07-12T08:43:10;1.37;;;0.80;;
2622;SDS011;1321;48.690;9.022;2022-07-12T08:45:38;0.87;;;0.80;;
2622;SDS011;1321;48.690;9.022;2022-07-12T08:48:07;1.37;;;0.83;;
2622;SDS011;1321;48.690;9.022;2022-07-12T08:50:36;0.80;;;0.80;;
2622;SDS011;1321;48.690;9.022;2022-07-12T08:53:11;0.80;;;0.80;;
2622;SDS011;1321;48.690;9.022;2022-07-12T08:55:39;0.90;;;0.90;;
2622;SDS011;1321;48.690;9.022;2022-07-12T08:58:15;0.80;;;0.80;;
2622;SDS011;1321;48.690;9.022;2022-07-12T09:00:45;0.87;;;0.87;;
2622;SDS011;1321;48.690;9.022;2022-07-12T09:03:15;0.80;;;0.80;;
2622;SDS011;1321;48.690;9.022;2022-07-12T09:05:48;0.73;;;0.73;;
2622;SDS011;1321;48.690;9.022;2022-07-12T09:08:24;1.00;;;0.90;;
2622;SDS011;1321;48.690;9.022;2022-07-12T09:10:54;1.03;;;0.80;;
2622;SDS011;1321;48.690;9.022;2022-07-12T09:16:21;2.03;;;0.90;;
2622;SDS011;1321;48.690;9.022;2022-07-12T09:18:50;1.13;;;0.90;;
2622;SDS011;1321;48.690;9.022;2022-07-12T09:21:38;1.20;;;1.10;;
2622;SDS011;1321;48.690;9.022;2022-07-12T09:24:15;1.10;;;0.90;;
2622;SDS011;1321;48.690;9.022;2022-07-12T09:26:44;0.90;;;0.90;;
2622;SDS011;1321;48.690;9.022;2022-07-12T09:29:14;1.40;;;1.30;;
2622;SDS011;1321;48.690;9.022;2022-07-12T09:31:48;1.00;;;1.00;;
2622;SDS011;1321;48.690;9.022;2022-07-12T09:34:35;0.90;;;0.90;;
2622;SDS011;1321;48.690;9.022;2022-07-12T09:37:21;0.70;;;0.70;;
2622;SDS011;1321;48.690;9.022;2022-07-12T09:39:51;0.90;;;0.80;;
2622;SDS011;1321;48.690;9.022;2022-07-12T09:42:20;0.97;;;0.97;;
2622;SDS011;1321;48.690;9.022;2022-07-12T09:44:55;1.33;;;1.00;;
2622;SDS011;1321;48.690;9.022;2022-07-12T09:47:24;1.10;;;1.00;;
2622;SDS011;1321;48.690;9.022;2022-07-12T09:49:53;1.00;;;0.87;;
2622;SDS011;1321;48.690;9.022;2022-07-12T09:52:22;1.57;;;1.00;;
2622;SDS011;1321;48.690;9.022;2022-07-12T09:54:52;1.00;;;0.90;;
2622;SDS011;1321;48.690;9.022;2022-07-12T09:57:26;1.37;;;0.90;;
2622;SDS011;1321;48.690;9.022;2022-07-12T09:59:58;0.77;;;0.77;;
2622;SDS011;1321;48.690;9.022;2022-07-12T10:02:28;1.00;;;1.00;;
2622;SDS011;1321;48.690;9.022;2022-07-12T10:04:57;1.77;;;0.80;;
2622;SDS011;1321;48.690;9.022;2022-07-12T10:07:31;3.07;;;0.90;;
2622;SDS011;1321;48.690;9.022;2022-07-12T10:09:59;0.97;;;0.97;;
2622;SDS011;1321;48.690;9.022;2022-07-12T10:12:28;0.70;;;0.70;;
2622;SDS011;1321;48.690;9.022;2022-07-12T10:14:59;2.40;;;0.83;;
2622;SDS011;1321;48.690;9.022;2022-07-12T10:17:30;0.70;;;0.70;;
2622;SDS011;1321;48.690;9.022;2022-07-12T10:20:16;1.07;;;0.97;;
2622;SDS011;1321;48.690;9.022;2022-07-12T10:22:45;1.30;;;1.00;;
2622;SDS011;1321;48.690;9.022;2022-07-12T10:25:30;0.60;;;0.60;;
2622;SDS011;1321;48.690;9.022;2022-07-12T10:27:59;0.67;;;0.60;;
2622;SDS011;1321;48.690;9.022;2022-07-12T10:30:30;0.80;;;0.80;;
2622;SDS011;1321;48.690;9.022;2022-07-12T10:33:14;0.70;;;0.70;;
2622;SDS011;1321;48.690;9.022;2022-07-12T10:35:57;0.70;;;0.70;;
2622;SDS011;1321;48.690;9.022;2022-07-12T10:38:26;1.20;;;1.10;;
2622;SDS011;1321;48.690;9.022;2022-07-12T10:40:55;0.73;;;0.73;;
2622;SDS011;1321;48.690;9.022;2022-07-12T10:43:24;1.80;;;0.70;;
2622;SDS011;1321;48.690;9.022;2022-07-12T10:46:21;1.53;;;1.30;;
2622;SDS011;1321;48.690;9.022;2022-07-12T10:52:13;1.30;;;0.70;;
2622;SDS011;1321;48.690;9.022;2022-07-12T10:54:46;0.80;;;0.80;;
2622;SDS011;1321;48.690;9.022;2022-07-12T10:57:38;0.70;;;0.70;;
2622;SDS011;1321;48.690;9.022;2022-07-12T11:00:09;0.83;;;0.73;;
2622;SDS011;1321;48.690;9.022;2022-07-12T11:02:40;0.60;;;0.60;;
2622;SDS011;1321;48.690;9.022;2022-07-12T11:05:10;0.90;;;0.70;;
2622;SDS011;1321;48.690;9.022;2022-07-12T11:07:39;0.60;;;0.60;;
2622;SDS011;1321;48.690;9.022;2022-07-12T11:10:11;0.63;;;0.63;;
2622;SDS011;1321;48.690;9.022;2022-07-12T11:12:40;0.70;;;0.70;;
2622;SDS011;1321;48.690;9.022;2022-07-12T11:15:08;0.60;;;0.60;;
2622;SDS011;1321;48.690;9.022;2022-07-12T11:17:37;1.10;;;0.70;;
2622;SDS011;1321;48.690;9.022;2022-07-12T11:20:08;0.80;;;0.60;;
2622;SDS011;1321;48.690;9.022;2022-07-12T11:22:38;0.60;;;0.60;;
2622;SDS011;1321;48.690;9.022;2022-07-12T11:25:08;0.50;;;0.50;;
2622;SDS011;1321;48.690;9.022;2022-07-12T11:27:39;0.70;;;0.70;;
2622;SDS011;1321;48.690;9.022;2022-07-12T11:30:08;0.80;;;0.70;;
2622;SDS011;1321;48.690;9.022;2022-07-12T11:32:38;0.60;;;0.60;;
2622;SDS011;1321;48.690;9.022;2022-07-12T11:35:20;0.60;;;0.60;;
2622;SDS011;1321;48.690;9.022;2022-07-12T11:37:52;0.60;;;0.60;;
2622;SDS011;1321;48.690;9.022;2022-07-12T11:40:25;0.50;;;0.50;;
2622;SDS011;1321;48.690;9.022;2022-07-12T11:42:55;1.30;;;0.50;;
2622;SDS011;1321;48.690;9.022;2022-07-12T11:45:26;1.30;;;0.50;;
2622;SDS011;1321;48.690;9.022;2022-07-12T11:47:55;0.50;;;0.50;;
2622;SDS011;1321;48.690;9.022;2022-07-12T11:50:27;0.50;;;0.50;;
2622;SDS011;1321;48.690;9.022;2022-07-12T11:53:01;0.70;;;0.70;;
2622;SDS011;1321;48.690;9.022;2022-07-12T11:55:30;0.70;;;0.70;;
2622;SDS011;1321;48.690;9.022;2022-07-12T11:58:05;0.53;;;0.53;;
2622;SDS011;1321;48.690;9.022;2022-07-12T12:00:33;1.13;;;0.77;;
2622;SDS011;1321;48.690;9.022;2022-07-12T12:03:02;0.60;;;0.60;;
2622;SDS011;1321;48.690;9.022;2022-07-12T12:05:32;1.13;;;0.60;;
2622;SDS011;1321;48.690;9.022;2022-07-12T12:08:01;0.57;;;0.57;;
2622;SDS011;1321;48.690;9.022;2022-07-12T12:10:30;0.60;;;0.53;;
2622;SDS011;1321;48.690;9.022;2022-07-12T12:13:00;0.60;;;0.50;;
2622;SDS011;1321;48.690;9.022;2022-07-12T12:15:29;0.60;;;0.60;;
2622;SDS011;1321;48.690;9.022;2022-07-12T12:17:59;0.80;;;0.70;;
2622;SDS011;1321;48.690;9.022;2022-07-12T12:20:29;0.60;;;0.60;;
2622;SDS011;1321;48.690;9.022;2022-07-12T12:22:59;0.60;;;0.60;;
2622;SDS011;1321;48.690;9.022;2022-07-12T12:25:28;1.73;;;0.60;;
2622;SDS011;1321;48.690;9.022;2022-07-12T12:27:58;0.70;;;0.60;;
2622;SDS011;1321;48.690;9.022;2022-07-12T12:30:49;0.80;;;0.67;;
2622;SDS011;1321;48.690;9.022;2022-07-12T12:33:34;0.50;;;0.50;;
2622;SDS011;1321;48.690;9.022;2022-07-12T12:36:13;0.50;;;0.50;;
2622;SDS011;1321;48.690;9.022;2022-07-12T12:38:49;0.50;;;0.50;;
2622;SDS011;1321;48.690;9.022;2022-07-12T12:41:18;0.70;;;0.60;;
2622;SDS011;1321;48.690;9.022;2022-07-12T12:43:56;0.53;;;0.53;;
2622;SDS011;1321;48.690;9.022;2022-07-12T12:46:44;0.80;;;0.60;;
2622;SDS011;1321;48.690;9.022;2022-07-12T12:49:43;0.53;;;0.53;;
2622;SDS011;1321;48.690;9.022;2022-07-12T12:52:19;0.73;;;0.60;;
2622;SDS011;1321;48.690;9.022;2022-07-12T12:54:49;0.50;;;0.50;;
2622;SDS011;1321;48.690;9.022;2022-07-12T12:57:17;0.57;;;0.57;;
2622;SDS011;1321;48.690;9.022;2022-07-12T12:59:46;0.53;;;0.53;;
2622;SDS011;1321;48.690;9.022;2022-07-12T13:02:14;0.67;;;0.67;;
2622;SDS011;1321;48.690;9.022;2022-07-12T13:04:43;0.60;;;0.60;;
2622;SDS011;1321;48.690;9.022;2022-07-12T13:07:11;0.60;;;0.60;;
2622;SDS011;1321;48.690;9.022;2022-07-12T13:09:39;0.80;;;0.50;;
2622;SDS011;1321;48.690;9.022;2022-07-12T13:12:09;0.70;;;0.70;;
2622;SDS011;1321;48.690;9.022;2022-07-12T13:14:37;1.00;;;0.60;;
2622;SDS011;1321;48.690;9.022;2022-07-12T13:17:06;0.93;;;0.60;;
2622;SDS011;1321;48.690;9.022;2022-07-12T13:19:34;0.60;;;0.60;;
2622;SDS011;1321;48.690;9.022;2022-07-12T13:22:03;0.60;;;0.60;;
2622;SDS011;1321;48.690;9.022;2022-07-12T13:24:32;1.37;;;0.60;;
2622;SDS011;1321;48.690;9.022;2022-07-12T13:27:00;0.50;;;0.50;;
2622;SDS011;1321;48.690;9.022;2022-07-12T13:29:30;1.17;;;0.50;;
2622;SDS011;1321;48.690;9.022;2022-07-12T13:31:58;0.87;;;0.87;;
2622;SDS011;1321;48.690;9.022;2022-07-12T13:34:26;1.00;;;0.67;;
2622;SDS011;1321;48.690;9.022;2022-07-12T13:36:54;0.67;;;0.67;;
2622;SDS011;1321;48.690;9.022;2022-07-12T13:39:23;0.93;;;0.53;;
2622;SDS011;1321;48.690;9.022;2022-07-12T13:42:09;0.50;;;0.50;;
2622;SDS011;1321;48.690;9.022;2022-07-12T13:44:39;0.60;;;0.60;;
2622;SDS011;1321;48.690;9.022;2022-07-12T13:47:09;0.60;;;0.60;;
2622;SDS011;1321;48.690;9.022;2022-07-12T13:49:37;0.60;;;0.60;;
2622;SDS011;1321;48.690;9.022;2022-07-12T13:52:08;0.50;;;0.50;;
2622;SDS011;1321;48.690;9.022;2022-07-12T13:54:37;0.63;;;0.63;;
2622;SDS011;1321;48.690;9.022;2022-07-12T13:57:05;0.50;;;0.50;;
2622;SDS011;1321;48.690;9.022;2022-07-12T13:59:34;0.73;;;0.50;;
2622;SDS011;1321;48.690;9.022;2022-07-12T14:02:04;0.40;;;0.40;;
2622;SDS011;1321;48.690;9.022;2022-07-12T14:04:33;0.60;;;0.60;;
2622;SDS011;1321;48.690;9.022;2022-07-12T14:07:01;0.50;;;0.50;;
2622;SDS011;1321;48.690;9.022;2022-07-12T14:09:30;0.53;;;0.53;;
2622;SDS011;1321;48.690;9.022;2022-07-12T14:11:58;1.20;;;0.70;;
2622;SDS011;1321;48.690;9.022;2022-07-12T14:14:28;0.60;;;0.60;;
2622;SDS011;1321;48.690;9.022;2022-07-12T14:17:16;0.43;;;0.43;;
2622;SDS011;1321;48.690;9.022;2022-07-12T14:19:45;0.87;;;0.60;;
2622;SDS011;1321;48.690;9.022;2022-07-12T14:22:15;0.70;;;0.50;;
2622;SDS011;1321;48.690;9.022;2022-07-12T14:24:43;0.87;;;0.70;;
2622;SDS011;1321;48.690;9.022;2022-07-12T14:27:12;0.50;;;0.50;;
2622;SDS011;1321;48.690;9.022;2022-07-12T14:29:41;0.67;;;0.67;;
2622;SDS011;1321;48.690;9.022;2022-07-12T14:32:10;2.20;;;0.57;;
2622;SDS011;1321;48.690;9.022;2022-07-12T14:34:40;0.60;;;0.60;;
2622;SDS011;1321;48.690;9.022;2022-07-12T14:37:10;0.50;;;0.50;;
2622;SDS011;1321;48.690;9.022;2022-07-12T14:39:40;0.60;;;0.57;;
2622;SDS011;1321;48.690;9.022;2022-07-12T14:42:08;0.83;;;0.60;;
2622;SDS011;1321;48.690;9.022;2022-07-12T14:44:38;0.53;;;0.53;;
2622;SDS011;1321;48.690;9.022;2022-07-12T14:47:09;0.50;;;0.50;;
2622;SDS011;1321;48.690;9.022;2022-07-12T14:49:42;0.90;;;0.50;;
2622;SDS011;1321;48.690;9.022;2022-07-12T14:52:12;5.00;;;0.50;;
2622;SDS011;1321;48.690;9.022;2022-07-12T14:54:41;0.63;;;0.63;;
2622;SDS011;1321;48.690;9.022;2022-07-12T14:57:12;0.60;;;0.60;;
2622;SDS011;1321;48.690;9.022;2022-07-12T14:59:41;0.60;;;0.50;;
2622;SDS011;1321;48.690;9.022;2022-07-12T15:02:12;0.50;;;0.50;;
2622;SDS011;1321;48.690;9.022;2022-07-12T15:04:43;0.60;;;0.50;;
2622;SDS011;1321;48.690;9.022;2022-07-12T15:07:14;1.23;;;0.50;;
2622;SDS011;1321;48.690;9.022;2022-07-12T15:09:44;1.00;;;0.60;;
2622;SDS011;1321;48.690;9.022;2022-07-12T15:12:14;0.90;;;0.50;;
2622;SDS011;1321;48.690;9.022;2022-07-12T15:14:44;0.50;;;0.50;;
2622;SDS011;1321;48.690;9.022;2022-07-12T15:17:18;2.40;;;0.50;;
2622;SDS011;1321;48.690;9.022;2022-07-12T15:19:50;0.50;;;0.50;;
2622;SDS011;1321;48.690;9.022;2022-07-12T15:22:20;0.50;;;0.50;;
2622;SDS011;1321;48.690;9.022;2022-07-12T15:24:50;0.40;;;0.40;;
2622;SDS011;1321;48.690;9.022;2022-07-12T15:27:19;0.50;;;0.50;;
2622;SDS011;1321;48.690;9.022;2022-07-12T15:29:50;0.50;;;0.50;;
2622;SDS011;1321;48.690;9.022;2022-07-12T15:32:20;0.70;;;0.60;;
2622;SDS011;1321;48.690;9.022;2022-07-12T15:34:51;1.33;;;0.70;;
2622;SDS011;1321;48.690;9.022;2022-07-12T15:37:21;0.87;;;0.47;;
2622;SDS011;1321;48.690;9.022;2022-07-12T15:39:50;0.80;;;0.80;;
2622;SDS011;1321;48.690;9.022;2022-07-12T15:42:20;0.60;;;0.60;;
2622;SDS011;1321;48.690;9.022;2022-07-12T15:44:50;0.60;;;0.60;;
2622;SDS011;1321;48.690;9.022;2022-07-12T15:47:20;0.80;;;0.50;;